Startpagina
METAR-TAF:

METAR-TAF

Vliegvelden :

Aeropuerto Internacional Jorge Chávez

Lima, Peru

breedte: 12-00S, lengte: 077-07W, hoogte: 12 m

Actueel weer

Dit bericht is 16 minuten geleden gemaakt, om 04:00 UTC
Wind 13 kt uit het zuidzuidoosten
Temperatuur 18°C
Vochtigheid 88%
Druk 1015 hPa
Zicht 10 km of meer
Geheel bewolkt op 1000 ft

METAR: SPJC 210400Z 16013KT 9999 OVC010 18/16 Q1015 NOSIG RMK PP000

Tijdstip: 23:16 (04:16 UTC)

Verwachting

Dit bericht is 5 uur en het 16 minuten geleden gemaakt, om 23:00 UTC
Verwachting geldig van 21 om 00 UTC tot 21 om 24 UTC
Wind 10 kt uit het zuidzuidoosten
Zicht 10 km of meer
Verspreide wolken op 1200 ft
Tijdelijke
van 21 om 07 UTC tot 21 om 11 UTC
Gebroken wolken op 600 ft
Gebroken wolken op 1200 ft
Van 21 om 1700 UTC
Wind 8 kt uit het zuiden
Zicht 10 km of meer
Verspreide wolken op 3000 ft
Verspreide wolken op 18000 ft

TAF: SPJC 202300Z 2100/2124 16010KT 9999 SCT012 TX23/2119Z TN16/2110Z TEMPO 2107/2111 BKN006 BKN012 FM211700 19008KT 9999 SCT030 SCT180

Waarnemingen en weersverwachtingen van meer dan 4000 vliegvelden (METAR en TAF).

De beschikbare stations zijn de gele en rode punten op de kaart.

Ga met uw muis naar het station om de naam te zien.

Klik dan om waarnemingen en weersverwachtingen te zien.

kaart wijzigen: klik op de groene knoppen met een zwart kruis om in te zoomen, op de groene knop met een streepje om uit te zoomen of op de groene pijlen voor aangrenzende kaarten.


METAR-TAF: